Flight Track Log - Related Links

Times and Time Zones

All times are in EDT time to prevent confusion due to time zone crossing. See the AAY875 flight status page for this flight to view local times or setup timezone preferences in your user account.

Time Position Orientation Groundspeed Altitude Reporting Facility
EDT Latitude Longitude Course Direction KTS MPH feet Rate Location/Type
Sun 05:19:29 PM 44.8100 -68.8318 315° West 149 171 500  Level FlightAware ADS-B
Sun 05:19:48 PM 44.8186 -68.8443 314° West 147 169 1,400 2,341 Climbing FlightAware ADS-B
Sun 05:20:10 PM 44.8296 -68.8609 312° West 165 190 2,100 1,875 Climbing FlightAware ADS-B
Sun 05:20:20 PM 44.8344 -68.8699 301° West 184 212 2,400 1,895 Climbing FlightAware ADS-B
Sun 05:20:29 PM 44.8369 -68.8809 279° West 203 234 2,700 2,400 Climbing FlightAware ADS-B
Sun 05:20:40 PM 44.8359 -68.8961 253° West 224 258 3,200 2,571 Climbing FlightAware ADS-B
Sun 05:20:50 PM 44.8303 -68.9108 236° Southwest 246 283 3,600 2,276 Climbing FlightAware ADS-B
Sun 05:21:09 PM 44.8154 -68.9348 225° Southwest 276 318 4,300 2,850 Climbing FlightAware ADS-B
Sun 05:21:30 PM 44.7952 -68.9600 220° Southwest 287 330 5,500 3,512 Climbing FlightAware ADS-B
Sun 05:21:50 PM 44.7735 -68.9858 221° Southwest 294 338 6,700 4,000 Climbing FlightAware ADS-B
Sun 05:22:09 PM 44.7549 -69.0094 223° Southwest 287 330 8,100 3,750 Climbing FlightAware ADS-B
Sun 05:22:30 PM 44.7370 -69.0339 225° Southwest 297 342 9,200 2,757 Climbing FlightAware ADS-B
Sun 05:22:46 PM 44.7193 -69.0583 225° Southwest 307 353 9,800 1,915 Climbing FlightAware ADS-B
Sun 05:23:17 PM 44.6866 -69.1046 226° Southwest 339 390 10,700 2,333 Climbing FlightAware ADS-B
Sun 05:23:58 PM 44.6385 -69.1731 225° Southwest 361 415 12,600 2,959 Climbing FlightAware ADS-B
Sun 05:24:30 PM 44.6009 -69.2259 225° Southwest 365 420 14,300 3,000 Climbing FlightAware ADS-B
Sun 05:25:08 PM 44.5544 -69.2908 225° Southwest 375 432 16,100 2,775 Climbing FlightAware ADS-B
Sun 05:25:50 PM 44.5024 -69.3621 225° Southwest 383 441 18,000 2,062 Climbing FlightAware ADS-B
Sun 05:31:38 PM 44.0758 -69.9445 224° Southwest 452 520 29,500 1,924 Climbing FlightAware ADS-B (EPKK / KRK)
Sun 05:32:26 PM 43.9426 -70.1242 225° Southwest 453 521 30,700 1,226 Climbing FlightAware ADS-B (KASH)
Sun 05:33:11 PM 43.8731 -70.2172 224° Southwest 472 543 31,400 1,109 Climbing FlightAware ADS-B (KASH)
Sun 05:33:58 PM 43.7983 -70.3170 224° Southwest 476 548 32,400 1,765 Climbing FlightAware ADS-B (KASH)
Sun 05:34:19 PM 43.7646 -70.3620 225° Southwest 459 528 33,400 1,770 Climbing FlightAware ADS-B (KASH)
Sun 05:34:59 PM 43.7031 -70.4437 224° Southwest 469 540 34,200 1,263 Climbing FlightAware ADS-B (KASH)
Sun 05:35:35 PM 43.6486 -70.5161 224° Southwest 468 539 35,000 1,217 Climbing FlightAware ADS-B (EPKK / KRK)
Sun 05:36:08 PM 43.5955 -70.5864 224° Southwest 469 540 35,600 1,015 Climbing FlightAware ADS-B (EPKK / KRK)
Sun 05:36:40 PM 43.5456 -70.6522 224° Southwest 473 544 36,100 968 Climbing FlightAware ADS-B (EPKK / KRK)
Sun 05:37:10 PM 43.4966 -70.7165 224° Southwest 474 545 36,600 984 Climbing FlightAware ADS-B (EPKK / KRK)
Sun 05:37:41 PM 43.4496 -70.7781 224° Southwest 472 543 37,100 1,258 Climbing FlightAware ADS-B (EPKK / KRK)
Sun 05:38:12 PM 43.4000 -70.8430 224° Southwest 467 537 37,900 1,500 Climbing FlightAware ADS-B
Sun 05:38:13 PM 43.3976 -70.8463 224° Southwest 465 535 37,900 375 Level FlightAware ADS-B (EPKK / KRK)
Sun 05:38:44 PM 43.3510 -70.9074 224° Southwest 456 525 38,100 279 Climbing FlightAware ADS-B (EPKK / KRK)
Sun 05:38:56 PM 43.3310 -70.9330 224° Southwest 458 527 38,100 -194 Level FlightAware ADS-B
Sun 05:39:15 PM 43.3039 -70.9687 224° Southwest 463 533 38,000 -176 Descending FlightAware ADS-B (EPKK / KRK)
Sun 05:39:30 PM 43.2810 -70.9990 224° Southwest 466 536 38,000  Level FlightAware ADS-B
Sun 05:39:47 PM 43.2540 -71.0335 223° Southwest 463 533 38,000  Level FlightAware ADS-B (EPKK / KRK)
Sun 05:40:26 PM 43.1932 -71.1123 224° Southwest 466 536 38,000  Level FlightAware ADS-B (EPKK / KRK)
Sun 05:40:32 PM 43.1833 -71.1250 224° Southwest 466 536 38,000 118 Level FlightAware ADS-B (KASH)
Sun 05:41:17 PM 43.1132 -71.2160 224° Southwest 466 536 38,100 79 Climbing FlightAware ADS-B (EPKK / KRK)
Sun 05:41:48 PM 43.0639 -71.2796 223° Southwest 467 537 38,100  Level FlightAware ADS-B (EPKK / KRK)
Sun 05:42:18 PM 43.0174 -71.3399 224° Southwest 465 535 38,100 -100 Level FlightAware ADS-B (EPKK / KRK)
Sun 05:42:48 PM 42.9707 -71.4029 225° Southwest 465 535 38,000 -92 Descending FlightAware ADS-B (EPKK / KRK)
Sun 05:43:23 PM 42.9177 -71.4745 225° Southwest 465 535 38,000 91 Level FlightAware ADS-B (EPKK / KRK)
Sun 05:43:54 PM 42.8696 -71.5389 225° Southwest 464 534 38,100 176 Climbing FlightAware ADS-B (EPKK / KRK)
Sun 05:43:57 PM 42.8658 -71.5440 225° Southwest 458 527 38,100  Level FlightAware ADS-B (KASH)
Sun 05:44:17 PM 42.8343 -71.5859 225° Southwest 458 527 38,100 -207 Level FlightAware ADS-B (KASH)
Sun 05:44:26 PM 42.8209 -71.6037 225° Southwest 457 526 38,000  Descending FlightAware ADS-B (KASH)
Sun 05:44:44 PM 42.7929 -71.6410 225° Southwest 455 524 38,100  Climbing FlightAware ADS-B (KASH)
Sun 05:45:23 PM 42.7425 -71.7081 225° Southwest 458 527 38,000 -133 Descending FlightAware ADS-B (SBBR / BSB)
Sun 05:45:29 PM 42.7240 -71.7326 225° Southwest 452 520 38,000  Level FlightAware ADS-B (KASH)
Sun 05:45:36 PM 42.7139 -71.7459 225° Southwest 452 520 38,000  Level FlightAware ADS-B (KASH)
Sun 05:45:52 PM 42.6899 -71.7777 225° Southwest 451 519 38,000  Level FlightAware ADS-B (KASH)
Sun 05:46:31 PM 42.6307 -71.8554 225° Southwest 450 518 38,000  Level FlightAware ADS-B (KASH)
Sun 05:47:02 PM 42.5835 -71.9174 225° Southwest 453 521 38,000  Level FlightAware ADS-B (KASH)
Sun 05:47:24 PM 42.5508 -71.9604 225° Southwest 455 524 38,000  Level FlightAware ADS-B (KASH)
Sun 05:47:38 PM 42.5386 -71.9764 225° Southwest 458 527 38,000  Level FlightAware ADS-B (KASH)
Sun 05:47:49 PM 42.5111 -72.0125 225° Southwest 459 528 38,000  Level FlightAware ADS-B (KASH)
Sun 05:48:20 PM 42.4648 -72.0732 224° Southwest 468 539 38,000  Level FlightAware ADS-B (SBBR / BSB)
Sun 05:48:52 PM 42.4179 -72.1344 224° Southwest 471 542 38,000  Level FlightAware ADS-B (SBBR / BSB)
Sun 05:49:29 PM 42.3633 -72.2053 224° Southwest 473 544 38,000 87 Level FlightAware ADS-B (SBBR / BSB)
Sun 05:50:01 PM 42.3050 -72.2810 224° Southwest 472 543 38,100 95 Climbing FlightAware ADS-B (SBBR / BSB)
Sun 05:50:32 PM 42.2567 -72.3438 224° Southwest 472 543 38,100  Level FlightAware ADS-B (SBBR / BSB)
Sun 05:51:07 PM 42.2027 -72.4135 224° Southwest 472 543 38,100  Level FlightAware ADS-B (EDIU / HDB)
Sun 05:51:47 PM 42.1392 -72.4957 224° Southwest 470 541 38,100  Level FlightAware ADS-B (KASH)
Sun 05:52:21 PM 42.0910 -72.5579 224° Southwest 467 537 38,100 -87 Level FlightAware ADS-B (KSNC)
Sun 05:52:56 PM 42.0318 -72.6337 224° Southwest 464 534 38,000 -78 Descending FlightAware ADS-B (KASH)
Sun 05:53:38 PM 41.9651 -72.7189 224° Southwest 461 531 38,000  Level FlightAware ADS-B (KSNC)
Sun 05:54:10 PM 41.9156 -72.7821 224° Southwest 455 524 38,000  Level FlightAware ADS-B (KASH)
Sun 05:54:42 PM 41.8662 -72.8450 224° Southwest 460 529 38,000  Level FlightAware ADS-B (KSNC)
Sun 05:55:12 PM 41.8199 -72.9036 224° Southwest 458 527 38,000  Level FlightAware ADS-B (KSNC)
Sun 05:55:47 PM 41.7697 -72.9674 224° Southwest 456 525 38,000  Level FlightAware ADS-B (KSNC)
Sun 05:56:20 PM 41.7175 -73.0335 223° Southwest 456 525 38,000  Level FlightAware ADS-B (KSNC)
Sun 05:57:00 PM 41.6555 -73.1116 223° Southwest 456 525 38,000  Level FlightAware ADS-B (KSNC)
Sun 05:57:31 PM 41.6152 -73.1623 223° Southwest 456 525 38,000 87 Level FlightAware ADS-B (KSNC)
Sun 05:58:09 PM 41.5491 -73.2457 223° Southwest 455 524 38,100 77 Climbing FlightAware ADS-B (KSNC)
Sun 05:58:49 PM 41.5512 -73.2430 223° Southwest 455 524 38,100 -70 Level FlightAware ADS-B (LDSP / SPU)
Sun 05:59:35 PM 41.4248 -73.4007 223° Southwest 452 520 38,000 -78 Descending FlightAware ADS-B (KSNC)
Sun 06:00:06 PM 41.3703 -73.4684 223° Southwest 450 518 38,000  Level FlightAware ADS-B (KSNC)
Sun 06:00:37 PM 41.3288 -73.5203 223° Southwest 449 517 38,000  Level FlightAware ADS-B (KSNC)
Sun 06:01:09 PM 41.2764 -73.5895 228° Southwest 445 512 38,000  Level FlightAware ADS-B (KSNC)
Sun 06:01:12 PM 41.2728 -73.5948 227° Southwest 446 513 38,000  Level FlightAware ADS-B (KWWD)
Sun 06:01:56 PM 41.2170 -73.6876 227° Southwest 446 513 38,000 81 Level FlightAware ADS-B (KWWD)
Sun 06:02:26 PM 41.1780 -73.7537 232° Southwest 441 507 38,100 95 Climbing FlightAware ADS-B (KWWD)
Sun 06:02:59 PM 41.1415 -73.8148 232° Southwest 439 505 38,100 -91 Level FlightAware ADS-B (KPHL)
Sun 06:03:32 PM 41.0978 -73.8880 232° Southwest 438 504 38,000 -90 Descending FlightAware ADS-B (KSNC)
Sun 06:04:06 PM 41.0529 -73.9636 232° Southwest 439 505 38,000  Level FlightAware ADS-B (KSNC)
Sun 06:04:36 PM 41.0152 -74.0268 232° Southwest 441 507 38,000  Level FlightAware ADS-B (KSNC)
Sun 06:04:43 PM 41.0074 -74.0397 232° Southwest 442 509 38,000  Level FlightAware ADS-B (KSNC)
Sun 06:05:20 PM 40.9567 -74.1203 229° Southwest 447 514 38,000  Level FlightAware ADS-B (KSNC)
Sun 06:05:52 PM 40.9179 -74.1784 229° Southwest 449 517 38,000 86 Level FlightAware ADS-B (KSNC)
Sun 06:06:30 PM 40.8872 -74.2246 229° Southwest 447 514 38,100 71 Climbing FlightAware ADS-B (KSNC)
Sun 06:07:17 PM 40.7982 -74.3596 229° Southwest 444 511 38,100  Level FlightAware ADS-B (KWWD)
Sun 06:07:47 PM 40.7721 -74.3994 229° Southwest 435 501 38,100  Level FlightAware ADS-B (KPHL)
Sun 06:08:17 PM 40.7250 -74.4709 230° Southwest 427 491 38,100 -92 Level FlightAware ADS-B (KWWD)
Sun 06:08:52 PM 40.6723 -74.5505 229° Southwest 427 491 38,000 -92 Descending FlightAware ADS-B (KSNC)
Sun 06:09:22 PM 40.6355 -74.6062 229° Southwest 423 487 38,000  Level FlightAware ADS-B (KPHL)
Sun 06:09:54 PM 40.5932 -74.6703 229° Southwest 420 483 38,000  Level FlightAware ADS-B (KPHL)
Sun 06:10:24 PM 40.5563 -74.7261 229° Southwest 422 486 38,000  Level FlightAware ADS-B (KPHL)
Sun 06:10:57 PM 40.5129 -74.7915 229° Southwest 424 488 38,000  Level FlightAware ADS-B (KWWD)
Sun 06:11:29 PM 40.4713 -74.8539 229° Southwest 427 491 38,000  Level FlightAware ADS-B
Sun 06:12:00 PM 40.4333 -74.9103 229° Southwest 434 499 38,000  Level FlightAware ADS-B (KWWD)
Sun 06:12:35 PM 40.3830 -74.9853 229° Southwest 439 505 38,000  Level FlightAware ADS-B (KWWD)
Sun 06:13:08 PM 40.3944 -74.9683 229° Southwest 445 512 38,000 80 Level FlightAware ADS-B (KPHL)
Sun 06:13:50 PM 40.3066 -75.0992 229° Southwest 448 516 38,100 81 Climbing FlightAware ADS-B
Sun 06:14:22 PM 40.2369 -75.2025 229° Southwest 446 513 38,100  Level FlightAware ADS-B (KWWD)
Sun 06:14:55 PM 40.2065 -75.2473 228° Southwest 451 519 38,100  Level FlightAware ADS-B
Sun 06:15:29 PM 40.1589 -75.3173 228° Southwest 447 514 38,100 -78 Level FlightAware ADS-B
Sun 06:16:12 PM 40.0854 -75.4255 229° Southwest 439 505 38,000 -109 Descending FlightAware ADS-B (KWWD)
Sun 06:16:24 PM 40.0691 -75.4495 229° Southwest 425 489 38,000  Level FlightAware ADS-B (KWWD)
Sun 06:16:56 PM 40.0289 -75.5080 228° Southwest 424 488 38,000  Level FlightAware ADS-B (KPHL)
Sun 06:17:39 PM 39.9730 -75.5901 228° Southwest 424 488 38,000  Level FlightAware ADS-B
Sun 06:18:11 PM 39.9388 -75.6403 228° Southwest 423 487 38,000  Level FlightAware ADS-B
Sun 06:18:41 PM 39.8925 -75.7090 230° Southwest 417 480 38,000  Level FlightAware ADS-B
Sun 06:19:11 PM 39.8569 -75.7668 232° Southwest 414 476 38,000  Level FlightAware ADS-B
Sun 06:19:37 PM 39.8260 -75.8174 231° Southwest 415 478 38,000  Level FlightAware ADS-B (KPHL)
Sun 06:20:08 PM 39.8022 -75.8558 231° Southwest 418 481 38,000  Level FlightAware ADS-B (KPHL)
Sun 06:20:26 PM 39.7658 -75.9141 232° Southwest 412 474 38,000  Level FlightAware ADS-B (KWWD)
Sun 06:20:45 PM 39.7431 -75.9502 232° Southwest 413 475 38,000  Level FlightAware ADS-B (KWWD)
Sun 06:20:52 PM 39.7365 -75.9607 231° Southwest 419 482 38,000  Level FlightAware ADS-B
Sun 06:21:28 PM 39.6897 -76.0349 232° Southwest 413 475 38,000  Level FlightAware ADS-B (KWWD)
Sun 06:22:00 PM 39.6568 -76.0870 231° Southwest 416 479 38,000  Level FlightAware ADS-B
Sun 06:22:38 PM 39.6057 -76.1675 231° Southwest 408 470 38,000 -971 Level FlightAware ADS-B (KDAA)
Sun 06:23:08 PM 39.5686 -76.2256 230° Southwest 416 479 36,900 -2,591 Descending FlightAware ADS-B (LFML / MRS)
Sun 06:23:22 PM 39.5533 -76.2492 231° Southwest 407 468 36,100 -2,250 Descending FlightAware ADS-B (KDAA)
Sun 06:23:48 PM 39.5188 -76.3022 230° Southwest 434 499 35,400 -1,548 Descending FlightAware ADS-B
Sun 06:23:53 PM 39.5137 -76.3101 231° Southwest 407 468 35,300 -1,714 Descending FlightAware ADS-B (KDAA)
Sun 06:23:55 PM 39.5084 -76.3182 231° Southwest 434 499 35,200 -1,800 Descending FlightAware ADS-B (KWWD)
Sun 06:24:03 PM 39.4989 -76.3328 231° Southwest 434 499 35,000 -1,556 Descending FlightAware ADS-B (KWWD)
Sun 06:24:22 PM 39.4742 -76.3708 230° Southwest 444 511 34,500 -1,800 Descending FlightAware ADS-B (KDAA)
Sun 06:24:33 PM 39.4626 -76.3885 230° Southwest 446 513 34,100 -1,143 Descending FlightAware ADS-B (LFML / MRS)
Sun 06:24:43 PM 39.4453 -76.4149 231° Southwest 437 503 34,100  Level FlightAware ADS-B (KWWD)
Sun 06:24:52 PM 39.4338 -76.4328 230° Southwest 444 511 34,100 -500 Level FlightAware ADS-B (KDAA)
Sun 06:24:55 PM 39.4302 -76.4383 231° Southwest 435 501 34,000 -158 Descending FlightAware ADS-B (KWWD)
Sun 06:25:30 PM 39.3874 -76.5057 231° Southwest 438 504 34,000  Level FlightAware ADS-B
Sun 06:25:47 PM 39.3631 -76.5441 231° Southwest 439 505 34,000  Level FlightAware ADS-B (KDAA)
Sun 06:26:00 PM 39.3465 -76.5704 231° Southwest 438 504 34,000  Level FlightAware ADS-B
Sun 06:26:17 PM 39.3386 -76.5828 231° Southwest 439 505 34,000  Level FlightAware ADS-B (KDAA)
Sun 06:26:30 PM 39.3078 -76.6313 231° Southwest 438 504 34,000  Level FlightAware ADS-B
Sun 06:26:48 PM 39.2853 -76.6666 231° Southwest 438 504 34,000  Level FlightAware ADS-B (KDAA)
Sun 06:27:04 PM 39.2643 -76.6996 231° Southwest 439 505 34,000  Level FlightAware ADS-B (LFML / MRS)
Sun 06:27:18 PM 39.2524 -76.7181 231° Southwest 436 502 34,000  Level FlightAware ADS-B (KDAA)
Sun 06:27:34 PM 39.2249 -76.7610 231° Southwest 436 502 34,000  Level FlightAware ADS-B (LFML / MRS)
Sun 06:27:47 PM 39.2093 -76.7852 231° Southwest 435 501 34,000  Level FlightAware ADS-B (KDAA)
Sun 06:28:05 PM 39.1856 -76.8221 231° Southwest 434 499 34,000  Level FlightAware ADS-B (KWWD)
Sun 06:28:17 PM 39.1694 -76.8474 231° Southwest 431 496 34,000  Level FlightAware ADS-B (KDAA)
Sun 06:28:47 PM 39.1320 -76.9055 231° Southwest 430 495 34,000  Level FlightAware ADS-B (KDAA)
Sun 06:29:24 PM 39.0854 -76.9781 231° Southwest 434 499 34,000  Level FlightAware ADS-B (LFML / MRS)
Sun 06:29:37 PM 39.0676 -77.0049 229° Southwest 437 503 34,000  Level FlightAware ADS-B (KDAA)
Sun 06:30:09 PM 39.0233 -77.0617 223° Southwest 440 506 34,000  Level FlightAware ADS-B (KWWD)
Sun 06:30:13 PM 39.0156 -77.0702 221° Southwest 447 514 34,000 128 Level FlightAware ADS-B (KDAA)
Sun 06:30:56 PM 38.9670 -77.1233 221° Southwest 444 511 34,100 136 Climbing FlightAware ADS-B (LFML / MRS)
Sun 06:30:57 PM 38.9454 -77.1470 221° Southwest 441 507 34,100  Level FlightAware ADS-B (KDAA)
Sun 06:31:27 PM 38.9005 -77.1963 221° Southwest 438 504 34,100  Level FlightAware ADS-B (KDAA)
Sun 06:31:36 PM 38.8861 -77.2121 221° Southwest 432 497 34,100 -122 Level FlightAware ADS-B (KWWD)
Sun 06:32:16 PM 38.8237 -77.2805 221° Southwest 444 511 34,000 -128 Descending FlightAware ADS-B (KWWD)
Sun 06:32:23 PM 38.8142 -77.2909 221° Southwest 448 516 34,000  Level FlightAware ADS-B (KDAA)
Sun 06:32:52 PM 38.7671 -77.3423 221° Southwest 449 517 34,000  Level FlightAware ADS-B (KDAA)
Sun 06:32:54 PM 38.7631 -77.3467 221° Southwest 450 518 34,000  Level FlightAware ADS-B (KWWD)
Sun 06:33:22 PM 38.7193 -77.3944 221° Southwest 448 516 34,000  Level FlightAware ADS-B (KDAA)
Sun 06:33:52 PM 38.6724 -77.4453 221° Southwest 447 514 34,000  Level FlightAware ADS-B (KDAA)
Sun 06:33:59 PM 38.6614 -77.4573 220° Southwest 448 516 34,000  Level FlightAware ADS-B (KWWD)
Sun 06:34:22 PM 38.6239 -77.4980 221° Southwest 449 517 34,000  Level FlightAware ADS-B (KDAA)
Sun 06:34:33 PM 38.6066 -77.5167 220° Southwest 449 517 34,000  Level FlightAware ADS-B (KWWD)
Sun 06:34:52 PM 38.5768 -77.5490 221° Southwest 450 518 34,000  Level FlightAware ADS-B (KDAA)
Sun 06:35:09 PM 38.5491 -77.5790 221° Southwest 445 512 34,000  Level FlightAware ADS-B (KWWD)
Sun 06:35:22 PM 38.5340 -77.5954 221° Southwest 452 520 34,000 154 Level FlightAware ADS-B (KDAA)
Sun 06:35:48 PM 38.4872 -77.6459 221° Southwest 447 514 34,100 194 Climbing FlightAware ADS-B (KWWD)
Sun 06:35:53 PM 38.4804 -77.6533 221° Southwest 452 520 34,100  Level FlightAware ADS-B (KDAA)
Sun 06:36:18 PM 38.4398 -77.6971 221° Southwest 446 513 34,100  Level FlightAware ADS-B (KWWD)
Sun 06:36:22 PM 38.4337 -77.7036 221° Southwest 451 519 34,100  Level FlightAware ADS-B (KDAA)
Sun 06:36:51 PM 38.3938 -77.7465 221° Southwest 451 519 34,100  Level FlightAware ADS-B (KDAA)
Sun 06:36:57 PM 38.3769 -77.7646 221° Southwest 445 512 34,100  Level FlightAware ADS-B (KWWD)
Sun 06:37:22 PM 38.3685 -77.7737 221° Southwest 451 519 34,100 -122 Level FlightAware ADS-B (KDAA)
Sun 06:37:46 PM 38.2983 -77.8490 221° Southwest 446 513 34,000 -140 Descending FlightAware ADS-B (KWWD)
Sun 06:38:05 PM 38.2775 -77.8713 221° Southwest 452 520 34,000  Level FlightAware ADS-B (KDAA)
Sun 06:38:24 PM 38.2377 -77.9139 221° Southwest 448 516 34,000  Level FlightAware ADS-B (KWWD)
Sun 06:39:09 PM 38.1659 -77.9907 221° Southwest 450 518 34,000  Level FlightAware ADS-B (KWWD)
Sun 06:39:18 PM 38.1510 -78.0066 221° Southwest 450 518 34,000  Level FlightAware ADS-B (KWWD)
Sun 06:39:45 PM 38.1078 -78.0525 221° Southwest 450 518 34,000 130 Level FlightAware ADS-B (KWWD)
Sun 06:40:04 PM 38.0850 -78.0767 221° Southwest 448 516 34,100  Climbing FlightAware ADS-B (KWWD)
Sun 06:40:21 PM 38.0541 -78.1095 220° Southwest 454 522 34,000  Descending FlightAware ADS-B (KCHO)
Sun 06:40:27 PM 38.0404 -78.1240 221° Southwest 447 514 34,100  Climbing FlightAware ADS-B (KWWD)
Sun 06:40:48 PM 38.0065 -78.1599 220° Southwest 453 521 34,000 -167 Descending FlightAware ADS-B (KCHO)
Sun 06:41:03 PM 37.9806 -78.1863 219° Southwest 455 524 34,000  Level FlightAware ADS-B (KWWD)
Sun 06:41:33 PM 37.9334 -78.2307 216° Southwest 456 525 34,000  Level FlightAware ADS-B (KCHO)
Sun 06:42:04 PM 37.8775 -78.2827 217° Southwest 449 517 34,000  Level FlightAware ADS-B (KWWD)
Sun 06:42:13 PM 37.8642 -78.2952 218° Southwest 449 517 34,000  Level FlightAware ADS-B (KWWD)
Sun 06:42:43 PM 37.8120 -78.3447 217° Southwest 453 521 34,000  Level FlightAware ADS-B (KCHO)
Sun 06:43:13 PM 37.7671 -78.3874 217° Southwest 453 521 34,000  Level FlightAware ADS-B (KCHO)
Sun 06:43:44 PM 37.7108 -78.4409 217° Southwest 452 520 34,000  Level FlightAware ADS-B (KCHO)
Sun 06:43:49 PM 37.7054 -78.4460 217° Southwest 452 520 34,000 300 Level FlightAware ADS-B (KCHO)
Sun 06:44:24 PM 37.6436 -78.5046 217° Southwest 451 519 34,200 875 Climbing FlightAware ADS-B (KCHO)
Sun 06:44:37 PM 37.6207 -78.5262 218° Southwest 445 512 34,700 1,800 Climbing FlightAware ADS-B (KWWD)
Sun 06:45:14 PM 37.5614 -78.5820 217° Southwest 443 510 35,700 1,786 Climbing FlightAware ADS-B (KCHO)
Sun 06:46:01 PM 37.4855 -78.6533 217° Southwest 430 495 37,200 1,630 Climbing FlightAware ADS-B (KCHO)
Sun 06:46:35 PM 37.4324 -78.7033 217° Southwest 426 490 37,900 432 Climbing FlightAware ADS-B (KCHO)
Sun 06:47:52 PM 37.3100 -78.8184 217° Southwest 424 488 38,000 53 Climbing FlightAware ADS-B (KWWD)
Sun 06:48:29 PM 37.2504 -78.8742 217° Southwest 427 491 38,000  Level FlightAware ADS-B (KWWD)
Sun 06:49:11 PM 37.1844 -78.9354 217° Southwest 425 489 38,000  Level FlightAware ADS-B (KWWD)
Sun 06:50:14 PM 37.0860 -79.0269 217° Southwest 421 484 38,000  Level FlightAware ADS-B (KWWD)
Sun 06:51:05 PM 37.0032 -79.1037 217° Southwest 422 486 38,000 49 Level FlightAware ADS-B (KWWD)
Sun 06:52:17 PM 36.8922 -79.2044 217° Southwest 439 505 38,100  Climbing Washington Center
Sun 06:53:18 PM 36.7978 -79.2908 216° Southwest 439 505 38,000 -49 Descending Washington Center
Sun 06:54:19 PM 36.7011 -79.3794 216° Southwest 439 505 38,000  Level Washington Center
Sun 06:56:17 PM 36.5183 -79.5464 216° Southwest 429 494 38,000 34 Level Atlanta Center
Sun 06:57:17 PM 36.4194 -79.6347 216° Southwest 435 501 38,100 50 Climbing Atlanta Center
Sun 06:58:17 PM 36.3244 -79.7222 217° Southwest 440 506 38,100 -50 Level Atlanta Center
Sun 06:59:17 PM 36.2153 -79.8208 216° Southwest 440 506 38,000 -50 Descending Atlanta Center
Sun 07:00:17 PM 36.1200 -79.9056 216° Southwest 440 506 38,000  Level Atlanta Center
Sun 07:01:17 PM 36.0144 -79.9878 212° Southwest 440 506 38,000  Level Atlanta Center
Sun 07:02:17 PM 35.8994 -80.0475 203° Southwest 440 506 38,000  Level Atlanta Center
Sun 07:03:17 PM 35.7950 -80.1064 205° Southwest 455 524 38,000  Level Atlanta Center
Sun 07:04:17 PM 35.6656 -80.1661 201° Southwest 460 529 38,000  Level Atlanta Center
Sun 07:11:57 PM 34.7802 -80.6066 202° Southwest 446 513 38,000  Level FlightAware ADS-B
Sun 07:12:49 PM 34.6810 -80.6552 202° Southwest 446 513 38,000  Level FlightAware ADS-B
Sun 07:13:26 PM 34.6085 -80.6907 202° Southwest 447 514 38,000  Level FlightAware ADS-B
Sun 07:14:25 PM 34.4950 -80.7460 202° Southwest 450 518 38,000 54 Level FlightAware ADS-B
Sun 07:15:18 PM 34.3933 -80.7954 202° Southwest 451 519 38,100 72 Climbing FlightAware ADS-B
Sun 07:15:48 PM 34.3358 -80.8232 202° Southwest 451 519 38,100 -88 Level FlightAware ADS-B
Sun 07:16:26 PM 34.2615 -80.8592 202° Southwest 451 519 38,000 -86 Descending FlightAware ADS-B
Sun 07:16:58 PM 34.1984 -80.8896 202° Southwest 451 519 38,000  Level FlightAware ADS-B
Sun 07:17:49 PM 34.1037 -80.9353 202° Southwest 451 519 38,000  Level FlightAware ADS-B
Sun 07:18:44 PM 33.9932 -80.9885 202° Southwest 451 519 38,000  Level FlightAware ADS-B
Sun 07:19:20 PM 33.9232 -81.0220 202° Southwest 453 521 38,000  Level FlightAware ADS-B
Sun 07:20:10 PM 33.8246 -81.0694 202° Southwest 453 521 38,000  Level FlightAware ADS-B
Sun 07:20:44 PM 33.7602 -81.1014 203° Southwest 452 520 38,000  Level FlightAware ADS-B
Sun 07:21:28 PM 33.6741 -81.1443 202° Southwest 451 519 38,000  Level FlightAware ADS-B
Sun 07:22:01 PM 33.6150 -81.1736 202° Southwest 451 519 38,000  Level FlightAware ADS-B
Sun 07:22:44 PM 33.5284 -81.2161 202° Southwest 450 518 38,000  Level FlightAware ADS-B
Sun 07:23:46 PM 33.4094 -81.2746 202° Southwest 449 517 38,000  Level FlightAware ADS-B
Sun 07:24:40 PM 33.3046 -81.3261 202° Southwest 447 514 38,000  Level FlightAware ADS-B
Sun 07:25:47 PM 33.1825 -81.3886 202° Southwest 454 522 38,000  Level Jacksonville Center
Sun 07:26:47 PM 33.0683 -81.4450 202° Southwest 454 522 38,000  Level Jacksonville Center
Sun 07:27:48 PM 32.9647 -81.4936 201° Southwest 454 522 38,000  Level Jacksonville Center
Sun 07:28:47 PM 32.8483 -81.5522 203° Southwest 454 522 38,000  Level Jacksonville Center
Sun 07:29:47 PM 32.7342 -81.6058 202° Southwest 449 517 38,000 50 Level Jacksonville Center
Sun 07:30:47 PM 32.6219 -81.6592 202° Southwest 442 509 38,100 50 Climbing Jacksonville Center
Sun 07:31:47 PM 32.4886 -81.6981 194° South 443 510 38,100 -50 Level Jacksonville Center
Sun 07:32:46 PM 32.3678 -81.7292 192° South 454 522 38,000 -50 Descending Jacksonville Center
Sun 07:33:47 PM 32.2450 -81.7578 191° South 449 517 38,000 50 Level Jacksonville Center
Sun 07:34:47 PM 32.1219 -81.7864 191° South 449 517 38,100  Climbing Jacksonville Center
Sun 07:35:47 PM 32.0136 -81.8097 190° South 444 511 38,000 -50 Descending Jacksonville Center
Sun 07:36:47 PM 31.8783 -81.8406 191° South 451 519 38,000  Level Jacksonville Center
Sun 07:37:47 PM 31.7594 -81.8689 191° South 451 519 38,000  Level Jacksonville Center
Sun 07:38:47 PM 31.6386 -81.8969 191° South 445 512 38,000  Level Jacksonville Center
Sun 07:39:47 PM 31.5136 -81.9250 191° South 453 521 38,000  Level Jacksonville Center
Sun 07:40:47 PM 31.4050 -81.9506 191° South 447 514 38,000  Level Jacksonville Center
Sun 07:41:47 PM 31.2697 -81.9858 193° South 453 521 38,000  Level Jacksonville Center
Sun 07:42:47 PM 31.1444 -82.0114 190° South 448 516 38,000  Level Jacksonville Center
Sun 07:43:47 PM 31.0194 -82.0392 191° South 448 516 38,000 16 Level Jacksonville Center
Sun 07:49:11 PM 30.3681 -82.1841 191° South 429 494 38,100  Climbing FlightAware ADS-B
Sun 07:49:53 PM 30.2867 -82.2024 191° South 427 491 38,000 -594 Descending FlightAware ADS-B
Sun 07:50:52 PM 30.1719 -82.2280 191° South 435 501 37,100 -970 Descending FlightAware ADS-B
Sun 07:51:32 PM 30.0935 -82.2455 191° South 434 499 36,400 -1,537 Descending FlightAware ADS-B
Sun 07:52:53 PM 29.9324 -82.2814 191° South 427 491 34,000 -1,918 Descending FlightAware ADS-B
Sun 07:53:34 PM 29.8547 -82.2987 191° South 421 484 32,500 -2,296 Descending FlightAware ADS-B
Sun 07:54:14 PM 29.7796 -82.3154 191° South 415 478 30,900 -2,325 Descending FlightAware ADS-B
Sun 07:54:54 PM 29.7028 -82.3324 191° South 411 473 29,400 -2,250 Descending FlightAware ADS-B
Sun 07:55:34 PM 29.6292 -82.3487 191° South 404 465 27,900 -2,203 Descending FlightAware ADS-B
Sun 07:56:13 PM 29.5594 -82.3527 169° South 405 466 26,500 -2,053 Descending FlightAware ADS-B
Sun 07:56:50 PM 29.4922 -82.3381 170° South 404 465 25,300 -1,875 Descending FlightAware ADS-B
Sun 07:57:33 PM 29.4090 -82.3209 170° South 396 456 24,000 -1,890 Descending FlightAware ADS-B
Sun 07:58:03 PM 29.3553 -82.3098 170° South 395 455 23,000 -1,700 Descending FlightAware ADS-B
Sun 07:58:33 PM 29.3051 -82.2994 170° South 389 448 22,300 -1,690 Descending FlightAware ADS-B
Sun 07:59:14 PM 29.2295 -82.2837 170° South 383 441 21,000 -1,975 Descending FlightAware ADS-B
Sun 07:59:52 PM 29.1628 -82.2697 170° South 377 434 19,700 -1,974 Descending FlightAware ADS-B
Sun 08:00:30 PM 29.0977 -82.2628 180° South 369 425 18,500 -1,852 Descending FlightAware ADS-B
Sun 08:01:13 PM 29.0284 -82.2620 179° South 361 415 17,200 -1,714 Descending FlightAware ADS-B
Sun 08:01:54 PM 28.9706 -82.2610 179° South 353 406 16,100 -1,714 Descending FlightAware ADS-B
Sun 08:02:30 PM 28.8985 -82.2598 179° South 346 398 15,000 -1,714 Descending FlightAware ADS-B
Sun 08:03:25 PM 28.8407 -82.2588 180° South 339 390 13,500 -755 Descending FlightAware ADS-B
Sun 08:05:09 PM 28.6949 -82.2566 180° South 313 360 13,000 -493 Descending FlightAware ADS-B
Sun 08:05:51 PM 28.6159 -82.2556 190° South 312 359 12,300 -857 Descending FlightAware ADS-B
Sun 08:06:12 PM 28.5694 -82.2704 210° Southwest 307 353 12,100 -733 Descending FlightAware ADS-B
Sun 08:07:21 PM 28.5618 -82.2797 242° Southwest 297 342 11,200 -814 Descending FlightAware ADS-B
Sun 08:08:10 PM 28.4925 -82.4262 242° Southwest 294 338 10,500 -889 Descending FlightAware ADS-B
Sun 08:08:42 PM 28.4667 -82.4667 242° Southwest 293 337 10,000 -1,102 Descending Tampa TRACON
Sun 08:09:48 PM 28.4333 -82.5667 249° West 276 318 8,700 -1,152 Descending Tampa TRACON
Sun 08:10:47 PM 28.3833 -82.6167 221° Southwest 273 314 7,600 -1,211 Descending Tampa TRACON
Sun 08:11:42 PM 28.3333 -82.6667 221° Southwest 276 318 6,400 -1,357 Descending Tampa TRACON
Sun 08:12:42 PM 28.2667 -82.7167 213° Southwest 271 312 5,000 -1,150 Descending Tampa TRACON
Sun 08:13:42 PM 28.2000 -82.7333 192° South 256 295 4,100 -714 Descending Tampa TRACON
Sun 08:14:48 PM 28.1333 -82.7333 180° South 236 272 3,500 -619 Descending Tampa TRACON
Sun 08:15:48 PM 28.0667 -82.7167 168° South 197 227 2,800 -800 Descending Tampa TRACON
Sun 08:16:48 PM 28.0167 -82.7000 164° South 179 206 1,900 -850 Descending Tampa TRACON
Sun 08:17:48 PM 27.9833 -82.7000 180° South 127 146 1,100 -700 Descending Tampa TRACON
Sun 08:18:48 PM 27.9500 -82.7000 180° South 122 140 500 -600 Descending Tampa TRACON
Sun 08:20:00 PM 27.9100 -82.6875 North  Level Estimated
Sun 08:27:00 PM 27.9100 -82.6875 North  Level Estimated
Sun 08:28:00 PM 27.9100 -82.6875 North  Level Estimated

Login

Don't have an account? Register now (free) for customized features, flight alerts, and more!